createdAt,value
2019-05-28T00:00:14.310Z,8.90
2019-05-28T00:02:43.806Z,8.90
2019-05-28T00:05:13.524Z,8.90
2019-05-28T00:07:43.006Z,8.90
2019-05-28T00:10:12.836Z,8.90
2019-05-28T00:12:42.726Z,8.90
2019-05-28T00:15:12.607Z,8.90
2019-05-28T00:17:42.550Z,8.90
2019-05-28T00:20:12.436Z,8.90
2019-05-28T00:22:41.915Z,8.90
2019-05-28T00:25:11.631Z,8.90
2019-05-28T00:27:41.130Z,8.90
2019-05-28T00:30:19.916Z,8.90
2019-05-28T00:32:42.581Z,8.90
2019-05-28T00:35:12.629Z,9.00
2019-05-28T00:37:42.113Z,9.00
2019-05-28T00:40:12.055Z,9.00
2019-05-28T00:42:41.660Z,9.10
2019-05-28T00:45:12.250Z,9.10
2019-05-28T00:47:42.026Z,9.20
2019-05-28T00:50:12.230Z,9.10
2019-05-28T00:52:41.740Z,9.10
2019-05-28T00:55:13.063Z,9.20
2019-05-28T00:57:45.834Z,9.30
2019-05-28T01:00:15.722Z,9.40
2019-05-28T01:02:45.706Z,9.40
2019-05-28T01:05:15.388Z,9.50
2019-05-28T01:07:45.367Z,9.60
2019-05-28T01:10:15.046Z,9.60
2019-05-28T01:12:44.522Z,9.70
2019-05-28T01:15:14.490Z,9.70
2019-05-28T01:17:43.968Z,9.70
2019-05-28T01:20:13.606Z,9.70
2019-05-28T01:22:43.091Z,9.70
2019-05-28T01:25:16.379Z,9.70
2019-05-28T01:27:43.845Z,9.70
2019-05-28T01:30:13.627Z,9.70
2019-05-28T01:32:43.234Z,9.70
2019-05-28T01:35:13.455Z,9.70
2019-05-28T01:37:42.951Z,9.70
2019-05-28T01:40:13.608Z,9.70
2019-05-28T01:42:43.544Z,9.80
2019-05-28T01:45:14.627Z,9.80
2019-05-28T01:47:44.094Z,9.70
2019-05-28T01:50:13.843Z,9.80
2019-05-28T01:52:43.319Z,9.70
2019-05-28T01:55:13.002Z,9.70
2019-05-28T01:57:42.502Z,9.70
2019-05-28T02:00:12.702Z,9.70
2019-05-28T02:02:42.302Z,9.70
2019-05-28T02:05:12.942Z,9.70
2019-05-28T02:07:43.087Z,9.70
2019-05-28T02:10:13.503Z,9.70
2019-05-28T02:12:43.303Z,9.70
2019-05-28T02:15:13.258Z,9.70
2019-05-28T02:17:42.810Z,9.70
2019-05-28T02:20:12.391Z,9.70
2019-05-28T02:22:42.279Z,9.70
2019-05-28T02:25:12.035Z,9.70
2019-05-28T02:27:41.514Z,9.70
2019-05-28T02:30:12.255Z,9.80
2019-05-28T02:32:41.762Z,9.80
2019-05-28T02:35:12.637Z,9.80
2019-05-28T02:37:42.447Z,9.80
2019-05-28T02:40:12.964Z,9.80
2019-05-28T02:42:42.885Z,9.90
2019-05-28T02:45:13.578Z,9.90
2019-05-28T02:47:43.061Z,9.90
2019-05-28T02:50:14.412Z,10.00
2019-05-28T02:52:45.013Z,10.00
2019-05-28T02:55:14.925Z,10.00
2019-05-28T02:57:45.813Z,10.10
2019-05-28T03:00:15.910Z,10.10
2019-05-28T03:02:48.438Z,10.20
2019-05-28T03:05:18.197Z,10.20
2019-05-28T03:07:48.432Z,10.20
2019-05-28T03:10:24.479Z,10.20
2019-05-28T03:12:54.139Z,10.30
2019-05-28T03:15:24.023Z,10.30
2019-05-28T03:17:54.287Z,10.40
2019-05-28T03:20:24.310Z,10.40
2019-05-28T03:22:54.671Z,10.50
2019-05-28T03:25:24.742Z,10.50
2019-05-28T03:27:54.258Z,10.50
2019-05-28T03:30:23.735Z,10.60
2019-05-28T03:32:53.206Z,10.50
2019-05-28T03:35:23.211Z,10.60
2019-05-28T03:37:54.518Z,10.60
2019-05-28T03:40:40.647Z,10.60
2019-05-28T03:43:10.226Z,10.70
2019-05-28T03:45:40.439Z,10.60
2019-05-28T03:48:11.423Z,10.60
2019-05-28T03:50:41.019Z,10.60
2019-05-28T03:53:10.554Z,10.60
2019-05-28T03:55:40.459Z,10.70
2019-05-28T03:58:10.334Z,10.70
2019-05-28T04:00:39.999Z,10.70
2019-05-28T04:03:09.550Z,10.70
2019-05-28T04:05:39.399Z,10.80
2019-05-28T04:08:09.219Z,10.80
2019-05-28T04:10:39.106Z,10.80
2019-05-28T04:13:08.582Z,10.80
2019-05-28T04:15:38.497Z,10.80
2019-05-28T04:18:08.848Z,10.90
2019-05-28T04:20:38.382Z,10.90
2019-05-28T04:23:14.210Z,10.90
2019-05-28T04:25:44.291Z,10.90
2019-05-28T04:28:14.126Z,10.90
2019-05-28T04:30:44.354Z,10.80
2019-05-28T04:33:13.895Z,10.70
2019-05-28T04:35:43.533Z,10.60
2019-05-28T04:38:13.138Z,10.50
2019-05-28T04:40:42.634Z,10.50
2019-05-28T04:43:12.122Z,10.50
2019-05-28T04:45:41.663Z,10.50
2019-05-28T04:48:11.135Z,10.50
2019-05-28T04:50:40.600Z,10.50
2019-05-28T04:53:10.234Z,10.40
2019-05-28T04:55:39.899Z,10.40
2019-05-28T04:58:09.354Z,10.40
2019-05-28T05:00:39.184Z,10.30
2019-05-28T05:03:08.671Z,10.30
2019-05-28T05:05:38.273Z,10.30
2019-05-28T05:08:07.764Z,10.30
2019-05-28T05:10:37.318Z,10.30
2019-05-28T05:13:06.921Z,10.30
2019-05-28T05:15:36.629Z,10.40
2019-05-28T05:18:06.233Z,10.50
2019-05-28T05:20:35.814Z,10.50
2019-05-28T05:23:05.346Z,10.40
2019-05-28T05:25:34.854Z,10.50
2019-05-28T05:28:04.695Z,10.50
2019-05-28T05:30:34.246Z,10.50
2019-05-28T05:33:19.275Z,10.50
2019-05-28T05:35:34.855Z,10.60
2019-05-28T05:38:05.453Z,10.60
2019-05-28T05:40:35.390Z,10.60
2019-05-28T05:43:04.898Z,10.50
2019-05-28T05:45:34.399Z,10.50
2019-05-28T05:48:04.731Z,10.40
2019-05-28T05:50:34.259Z,10.40
2019-05-28T05:53:04.093Z,10.40
2019-05-28T05:55:33.605Z,10.30
2019-05-28T05:58:03.090Z,10.40
2019-05-28T06:00:32.600Z,10.40
2019-05-28T06:03:05.562Z,10.40
2019-05-28T06:05:35.055Z,10.40
2019-05-28T06:08:04.612Z,10.40
2019-05-28T06:10:34.110Z,10.50
2019-05-28T06:13:03.588Z,10.40
2019-05-28T06:15:33.617Z,10.40
2019-05-28T06:18:03.581Z,10.50
2019-05-28T06:20:33.103Z,10.50
2019-05-28T06:23:02.621Z,10.50
2019-05-28T06:25:32.140Z,10.50
2019-05-28T06:28:02.097Z,10.50
2019-05-28T06:30:31.983Z,10.50
2019-05-28T06:33:01.610Z,10.50
2019-05-28T06:35:31.691Z,10.50
2019-05-28T06:38:01.546Z,10.50
2019-05-28T06:40:31.148Z,10.60
2019-05-28T06:43:00.643Z,10.70
2019-05-28T06:45:30.110Z,10.70
2019-05-28T06:47:59.947Z,10.80
2019-05-28T06:50:29.434Z,10.90
2019-05-28T06:52:58.940Z,11.00
2019-05-28T06:55:28.590Z,11.10
2019-05-28T06:57:58.812Z,11.10
2019-05-28T07:00:28.885Z,11.20
2019-05-28T07:02:58.549Z,11.30
2019-05-28T07:05:28.045Z,11.30
2019-05-28T07:07:57.922Z,11.30
2019-05-28T07:10:27.550Z,11.30
2019-05-28T07:12:57.030Z,11.30
2019-05-28T07:15:26.534Z,11.30
2019-05-28T07:17:59.521Z,11.40
2019-05-28T07:20:28.015Z,11.50
2019-05-28T07:22:57.495Z,11.60
2019-05-28T07:25:27.847Z,11.60
2019-05-28T07:28:10.257Z,11.60
2019-05-28T07:30:28.787Z,11.50
2019-05-28T07:32:58.611Z,11.60
2019-05-28T07:35:42.637Z,11.60
2019-05-28T07:37:59.726Z,11.70
2019-05-28T07:40:32.057Z,11.80
2019-05-28T07:43:00.440Z,11.70
2019-05-28T07:45:30.267Z,11.80
2019-05-28T07:48:00.282Z,12.10
2019-05-28T07:50:30.306Z,12.30
2019-05-28T07:52:59.786Z,12.50
2019-05-28T07:55:29.626Z,12.70
2019-05-28T07:57:59.523Z,12.50
2019-05-28T08:00:40.654Z,12.50
2019-05-28T08:03:10.779Z,12.50
2019-05-28T08:05:40.566Z,12.40
2019-05-28T08:08:12.915Z,12.20
2019-05-28T08:10:42.793Z,12.30
2019-05-28T08:13:13.475Z,12.40
2019-05-28T08:15:43.711Z,12.30
2019-05-28T08:18:13.336Z,12.10
2019-05-28T08:20:42.788Z,12.00
2019-05-28T08:23:12.262Z,12.00
2019-05-28T08:25:47.180Z,11.90
2019-05-28T08:28:19.817Z,11.80
2019-05-28T08:30:44.307Z,11.70
2019-05-28T08:33:13.910Z,11.50
2019-05-28T08:35:43.434Z,11.30
2019-05-28T08:38:13.014Z,11.30
2019-05-28T08:40:42.509Z,11.30
2019-05-28T08:43:12.354Z,11.30
2019-05-28T08:45:42.730Z,11.20
2019-05-28T08:48:12.587Z,11.20
2019-05-28T08:50:42.279Z,11.10
2019-05-28T08:53:11.763Z,11.00
2019-05-28T08:55:41.603Z,11.00
2019-05-28T08:58:13.085Z,11.00
2019-05-28T09:00:43.226Z,10.90
2019-05-28T09:03:14.502Z,10.90
2019-05-28T09:05:44.015Z,11.00
2019-05-28T09:08:13.863Z,11.00
2019-05-28T09:10:43.339Z,11.00
2019-05-28T09:13:13.339Z,11.00
2019-05-28T09:15:42.959Z,11.00
2019-05-28T09:18:13.184Z,11.10
2019-05-28T09:20:42.604Z,10.90
2019-05-28T09:23:12.108Z,10.70
2019-05-28T09:25:41.586Z,10.70
2019-05-28T09:28:28.422Z,10.70
2019-05-28T09:30:42.608Z,10.70
2019-05-28T09:33:14.059Z,10.80
2019-05-28T09:36:03.456Z,10.80
2019-05-28T09:38:15.372Z,10.80
2019-05-28T09:40:50.670Z,10.90
2019-05-28T09:43:16.039Z,11.00
2019-05-28T09:45:45.518Z,11.10
2019-05-28T09:48:15.026Z,11.10
2019-05-28T09:50:44.517Z,11.00
2019-05-28T09:53:14.066Z,10.90
2019-05-28T09:55:43.546Z,10.90
2019-05-28T09:58:13.374Z,10.80
2019-05-28T10:00:56.494Z,10.80
2019-05-28T10:03:14.265Z,10.80
2019-05-28T10:05:58.252Z,10.70
2019-05-28T10:08:14.910Z,10.70
2019-05-28T10:10:44.559Z,10.80
2019-05-28T10:13:14.029Z,10.80
2019-05-28T10:15:43.887Z,10.80
2019-05-28T10:18:13.484Z,10.90
2019-05-28T10:20:42.959Z,11.00
2019-05-28T10:23:12.448Z,11.10
2019-05-28T10:25:41.944Z,11.30
2019-05-28T10:28:11.505Z,11.20
2019-05-28T10:30:41.079Z,11.20
2019-05-28T10:33:10.601Z,11.20
2019-05-28T10:35:40.081Z,11.10
2019-05-28T10:38:15.129Z,11.10
2019-05-28T10:40:40.873Z,11.00
2019-05-28T10:43:10.687Z,11.10
2019-05-28T10:45:40.403Z,11.20
2019-05-28T10:48:10.081Z,11.50
2019-05-28T10:50:39.560Z,11.60
2019-05-28T10:53:09.086Z,11.70
2019-05-28T10:55:38.559Z,11.90
2019-05-28T10:58:08.039Z,12.20
2019-05-28T11:00:38.494Z,12.30
2019-05-28T11:03:08.662Z,12.30
2019-05-28T11:05:38.246Z,12.20
2019-05-28T11:08:08.147Z,12.30
2019-05-28T11:10:37.621Z,12.40
2019-05-28T11:13:07.213Z,12.40
2019-05-28T11:15:36.678Z,12.50
2019-05-28T11:18:06.164Z,12.60
2019-05-28T11:20:35.762Z,12.50
2019-05-28T11:23:05.244Z,12.50
2019-05-28T11:25:34.722Z,12.60
2019-05-28T11:28:04.403Z,12.70
2019-05-28T11:30:33.889Z,12.60
2019-05-28T11:33:03.409Z,12.40
2019-05-28T11:35:33.287Z,12.50
2019-05-28T11:38:02.847Z,12.60
2019-05-28T11:40:32.750Z,12.90
2019-05-28T11:43:02.942Z,13.10
2019-05-28T11:45:32.573Z,13.50
2019-05-28T11:48:02.553Z,13.70
2019-05-28T11:50:32.080Z,13.80
2019-05-28T11:53:01.982Z,13.90
2019-05-28T11:55:31.466Z,13.80
2019-05-28T11:58:00.966Z,13.90
2019-05-28T12:00:30.562Z,14.10
2019-05-28T12:03:00.265Z,14.20
2019-05-28T12:05:30.278Z,14.30
2019-05-28T12:07:59.801Z,14.20
2019-05-28T12:10:32.824Z,14.10
2019-05-28T12:13:02.290Z,14.10
2019-05-28T12:15:31.778Z,14.00
2019-05-28T12:18:01.723Z,14.10
2019-05-28T12:20:32.424Z,13.80
2019-05-28T12:23:11.026Z,13.60
2019-05-28T12:25:33.514Z,13.40
2019-05-28T12:28:03.019Z,13.40
2019-05-28T12:30:32.626Z,13.40
2019-05-28T12:33:02.274Z,13.50
2019-05-28T12:35:31.755Z,13.60
2019-05-28T12:38:01.266Z,13.60
2019-05-28T12:40:46.516Z,13.60
2019-05-28T12:43:02.038Z,13.60
2019-05-28T12:45:35.351Z,13.70
2019-05-28T12:48:11.491Z,13.60
2019-05-28T12:50:33.843Z,13.60
2019-05-28T12:53:05.489Z,13.60
2019-05-28T12:55:35.227Z,13.50
2019-05-28T12:58:05.099Z,13.60
2019-05-28T13:00:35.238Z,13.70
2019-05-28T13:03:05.031Z,13.90
2019-05-28T13:05:34.819Z,14.10
2019-05-28T13:08:09.103Z,14.30
2019-05-28T13:10:35.451Z,14.30
2019-05-28T13:13:05.280Z,14.50
2019-05-28T13:15:34.983Z,14.70
2019-05-28T13:18:04.999Z,14.80
2019-05-28T13:20:34.615Z,14.80
2019-05-28T13:23:04.496Z,14.80
2019-05-28T13:25:34.183Z,14.70
2019-05-28T13:28:03.650Z,14.70
2019-05-28T13:30:33.266Z,14.90
2019-05-28T13:33:03.250Z,15.00
2019-05-28T13:35:33.599Z,15.10
2019-05-28T13:38:03.509Z,15.20
2019-05-28T13:40:32.957Z,15.40
2019-05-28T13:43:02.504Z,15.40
2019-05-28T13:45:32.805Z,15.60
2019-05-28T13:48:02.631Z,15.70
2019-05-28T13:50:32.220Z,15.60
2019-05-28T13:53:01.815Z,15.60
2019-05-28T13:55:31.530Z,15.60
2019-05-28T13:58:01.150Z,15.40
2019-05-28T14:00:31.231Z,15.30
2019-05-28T14:03:00.736Z,15.30
2019-05-28T14:05:30.639Z,15.40
2019-05-28T14:08:00.158Z,15.40
2019-05-28T14:10:29.751Z,15.20
2019-05-28T14:12:59.345Z,15.10
2019-05-28T14:15:28.900Z,15.00
2019-05-28T14:17:58.924Z,15.00
2019-05-28T14:20:28.551Z,15.00
2019-05-28T14:22:58.038Z,15.10
2019-05-28T14:25:27.543Z,15.00
2019-05-28T14:27:57.171Z,15.00
2019-05-28T14:30:26.944Z,15.00
2019-05-28T14:32:56.794Z,15.10
2019-05-28T14:35:26.379Z,15.00
2019-05-28T14:37:55.947Z,15.00
2019-05-28T14:40:25.560Z,14.90
2019-05-28T14:42:55.063Z,14.80
2019-05-28T14:45:25.599Z,14.70
2019-05-28T14:47:55.848Z,14.50
2019-05-28T14:50:25.392Z,14.60
2019-05-28T14:52:54.854Z,14.50
2019-05-28T14:55:24.331Z,14.30
2019-05-28T14:57:53.908Z,14.10
2019-05-28T15:00:25.080Z,14.00
2019-05-28T15:02:54.545Z,13.80
2019-05-28T15:05:24.050Z,13.70
2019-05-28T15:07:53.959Z,13.60
2019-05-28T15:10:24.306Z,13.50
2019-05-28T15:12:54.155Z,13.50
2019-05-28T15:15:35.127Z,13.50
2019-05-28T15:17:54.870Z,13.40
2019-05-28T15:20:24.386Z,13.50
2019-05-28T15:22:54.030Z,13.50
2019-05-28T15:25:23.736Z,13.50
2019-05-28T15:27:53.294Z,13.50
2019-05-28T15:30:22.949Z,13.50
2019-05-28T15:32:52.443Z,13.50
2019-05-28T15:35:22.208Z,13.50
2019-05-28T15:37:51.711Z,13.50
2019-05-28T15:40:21.287Z,13.50
2019-05-28T15:43:05.186Z,13.50
2019-05-28T15:45:22.198Z,13.40
2019-05-28T15:47:51.671Z,13.40
2019-05-28T15:50:21.303Z,13.30
2019-05-28T15:52:51.228Z,13.20
2019-05-28T15:55:20.750Z,13.20
2019-05-28T15:57:50.599Z,13.20
2019-05-28T16:00:22.497Z,13.20
2019-05-28T16:02:52.767Z,13.20
2019-05-28T16:05:22.288Z,13.00
2019-05-28T16:07:51.973Z,12.80
2019-05-28T16:10:21.635Z,12.90
2019-05-28T16:12:51.235Z,12.80
2019-05-28T16:15:21.018Z,12.90
2019-05-28T16:17:50.559Z,13.00
2019-05-28T16:20:20.136Z,13.00
2019-05-28T16:22:49.614Z,13.00
2019-05-28T16:25:19.869Z,13.00
2019-05-28T16:27:49.487Z,13.00
2019-05-28T16:30:21.179Z,13.10
2019-05-28T16:32:50.664Z,13.10
2019-05-28T16:35:20.931Z,13.20
2019-05-28T16:37:50.432Z,13.20
2019-05-28T16:40:19.925Z,13.20
2019-05-28T16:42:49.806Z,13.10
2019-05-28T16:45:20.244Z,13.00
2019-05-28T16:47:49.718Z,13.10
2019-05-28T16:50:19.955Z,13.20
2019-05-28T16:52:49.471Z,13.20
2019-05-28T16:55:19.079Z,13.30
2019-05-28T16:57:49.127Z,13.20
2019-05-28T17:00:19.380Z,13.20
2019-05-28T17:02:48.883Z,13.20
2019-05-28T17:05:18.915Z,13.10
2019-05-28T17:07:48.534Z,12.90
2019-05-28T17:10:32.307Z,12.90
2019-05-28T17:12:49.580Z,12.90
2019-05-28T17:15:20.326Z,12.90
2019-05-28T17:17:49.930Z,12.90
2019-05-28T17:20:20.179Z,12.90
2019-05-28T17:22:49.641Z,13.00
2019-05-28T17:25:19.406Z,13.00
2019-05-28T17:27:48.898Z,12.90
2019-05-28T17:30:23.616Z,12.90
2019-05-28T17:32:49.674Z,12.90
2019-05-28T17:35:19.267Z,12.90
2019-05-28T17:37:48.730Z,13.00
2019-05-28T17:40:21.879Z,13.10
2019-05-28T17:42:50.161Z,13.10
2019-05-28T17:45:20.145Z,13.30
2019-05-28T17:47:49.625Z,13.60
2019-05-28T17:50:19.207Z,14.00
2019-05-28T17:52:51.519Z,14.50
2019-05-28T17:55:19.985Z,15.10
2019-05-28T17:57:49.451Z,15.40
2019-05-28T18:00:19.350Z,15.50
2019-05-28T18:02:48.998Z,15.40
2019-05-28T18:05:18.867Z,15.60
2019-05-28T18:07:48.465Z,15.70
2019-05-28T18:10:19.383Z,15.70
2019-05-28T18:12:48.842Z,15.10
2019-05-28T18:15:18.705Z,15.40
2019-05-28T18:17:48.262Z,15.20
2019-05-28T18:20:18.193Z,14.90
2019-05-28T18:22:47.826Z,14.80
2019-05-28T18:25:20.133Z,14.80
2019-05-28T18:27:48.994Z,14.90
2019-05-28T18:30:18.586Z,15.10
2019-05-28T18:32:48.425Z,15.00
2019-05-28T18:35:17.963Z,15.20
2019-05-28T18:37:47.422Z,15.50
2019-05-28T18:40:18.402Z,15.00
2019-05-28T18:42:47.905Z,14.70
2019-05-28T18:45:17.394Z,14.20
2019-05-28T18:47:46.993Z,13.70
2019-05-28T18:50:17.496Z,13.20
2019-05-28T18:52:46.985Z,13.10
2019-05-28T18:55:16.556Z,12.90
2019-05-28T18:57:50.510Z,12.70
2019-05-28T19:00:17.652Z,12.40
2019-05-28T19:02:47.166Z,12.20
2019-05-28T19:05:18.049Z,12.10
2019-05-28T19:07:47.541Z,11.90
2019-05-28T19:10:17.279Z,11.80
2019-05-28T19:12:47.146Z,11.70
2019-05-28T19:15:16.822Z,11.50
2019-05-28T19:17:46.321Z,11.30
2019-05-28T19:20:16.005Z,11.20
2019-05-28T19:22:45.942Z,11.10
2019-05-28T19:25:17.130Z,11.10
2019-05-28T19:27:47.570Z,11.00
2019-05-28T19:30:18.731Z,10.80
2019-05-28T19:32:48.823Z,10.80
2019-05-28T19:35:18.371Z,10.70
2019-05-28T19:37:48.003Z,10.70
2019-05-28T19:40:21.423Z,10.60
2019-05-28T19:42:50.901Z,10.40
2019-05-28T19:45:20.847Z,10.40
2019-05-28T19:47:50.431Z,10.40
2019-05-28T19:50:20.047Z,10.30
2019-05-28T19:52:49.574Z,10.20
2019-05-28T19:55:19.078Z,10.10
2019-05-28T19:57:48.556Z,10.00
2019-05-28T20:00:19.514Z,9.90
2019-05-28T20:02:49.029Z,9.90
2019-05-28T20:05:18.503Z,9.80
2019-05-28T20:07:47.990Z,9.70
2019-05-28T20:10:19.336Z,9.70
2019-05-28T20:12:48.968Z,9.50
2019-05-28T20:15:22.519Z,9.50
2019-05-28T20:17:50.569Z,9.50
2019-05-28T20:20:20.869Z,9.40
2019-05-28T20:22:50.366Z,9.30
2019-05-28T20:25:20.035Z,9.20
2019-05-28T20:27:49.713Z,9.20
2019-05-28T20:30:20.913Z,9.10
2019-05-28T20:32:50.577Z,9.00
2019-05-28T20:35:20.514Z,8.90
2019-05-28T20:37:50.755Z,8.80
2019-05-28T20:40:20.671Z,8.80
2019-05-28T20:42:50.582Z,8.70
2019-05-28T20:45:20.462Z,8.70
2019-05-28T20:47:49.949Z,8.70
2019-05-28T20:50:19.946Z,8.70
2019-05-28T20:52:49.428Z,8.70
2019-05-28T20:55:19.528Z,8.70
2019-05-28T20:57:49.213Z,8.60
2019-05-28T21:00:19.327Z,8.60
2019-05-28T21:02:49.581Z,8.50
2019-05-28T21:05:19.346Z,8.50
2019-05-28T21:07:49.986Z,8.40
2019-05-28T21:10:19.710Z,8.30
2019-05-28T21:12:50.551Z,8.30
2019-05-28T21:15:20.366Z,8.30
2019-05-28T21:17:51.044Z,8.20
2019-05-28T21:20:20.591Z,8.30
2019-05-28T21:22:50.085Z,8.30
2019-05-28T21:25:19.822Z,8.20
2019-05-28T21:27:49.967Z,8.20
2019-05-28T21:30:20.058Z,8.10
2019-05-28T21:32:50.561Z,8.10
2019-05-28T21:35:20.398Z,8.00
2019-05-28T21:37:50.902Z,7.90
2019-05-28T21:40:20.570Z,7.80
2019-05-28T21:42:59.337Z,7.80
2019-05-28T21:45:22.887Z,7.70
2019-05-28T21:47:52.585Z,7.70
2019-05-28T21:50:22.758Z,7.70
2019-05-28T21:52:52.982Z,7.60
2019-05-28T21:55:23.037Z,7.60
2019-05-28T21:57:53.592Z,7.60
2019-05-28T22:00:37.570Z,7.60
2019-05-28T22:03:07.040Z,7.60
2019-05-28T22:05:36.970Z,7.50
2019-05-28T22:08:07.749Z,7.40
2019-05-28T22:10:37.265Z,7.30
2019-05-28T22:13:18.365Z,7.10
2019-05-28T22:15:38.157Z,7.10
2019-05-28T22:18:08.557Z,7.00
2019-05-28T22:20:38.501Z,6.90
2019-05-28T22:23:08.782Z,6.80
2019-05-28T22:25:39.153Z,6.70
2019-05-28T22:28:08.609Z,6.70
2019-05-28T22:30:38.113Z,6.70
2019-05-28T22:33:08.381Z,6.60
2019-05-28T22:35:38.022Z,6.50
2019-05-28T22:38:07.585Z,6.40
2019-05-28T22:40:37.669Z,6.40
2019-05-28T22:43:07.048Z,6.30
2019-05-28T22:45:41.806Z,6.20
2019-05-28T22:48:15.595Z,6.20
2019-05-28T22:50:38.753Z,6.20
2019-05-28T22:53:08.272Z,6.10
2019-05-28T22:55:37.674Z,6.10
2019-05-28T22:58:08.443Z,6.10
2019-05-28T23:00:38.481Z,6.10
2019-05-28T23:03:09.087Z,6.10
2019-05-28T23:05:38.731Z,6.20
2019-05-28T23:08:08.094Z,6.10
2019-05-28T23:10:37.569Z,6.10
2019-05-28T23:13:07.142Z,6.00
2019-05-28T23:15:36.969Z,6.00
2019-05-28T23:18:07.309Z,6.00
2019-05-28T23:20:37.792Z,5.90
2019-05-28T23:23:07.393Z,5.90
2019-05-28T23:25:36.980Z,5.90
2019-05-28T23:28:07.593Z,5.80
2019-05-28T23:30:37.082Z,5.80
2019-05-28T23:33:06.526Z,5.70
2019-05-28T23:35:35.978Z,5.60
2019-05-28T23:38:05.507Z,5.60
2019-05-28T23:40:35.303Z,5.60
2019-05-28T23:43:05.358Z,5.50
2019-05-28T23:45:34.819Z,5.50
2019-05-28T23:48:07.962Z,5.50
2019-05-28T23:50:35.388Z,5.40
2019-05-28T23:53:05.685Z,5.40
2019-05-28T23:55:35.163Z,5.30
2019-05-28T23:58:05.795Z,5.30
